sensor_id;sensor_type;location;lat;lon;timestamp;P1;durP1;ratioP1;P2;durP2;ratioP2
78308;SDS011;67566;42.022;21.356;2023-03-23T00:00:59;42.55;;;24.70;;
78308;SDS011;67566;42.022;21.356;2023-03-23T00:03:25;38.55;;;21.92;;
78308;SDS011;67566;42.022;21.356;2023-03-23T00:05:53;40.72;;;24.52;;
78308;SDS011;67566;42.022;21.356;2023-03-23T00:08:30;38.78;;;22.90;;
78308;SDS011;67566;42.022;21.356;2023-03-23T00:10:56;44.25;;;25.88;;
78308;SDS011;67566;42.022;21.356;2023-03-23T00:13:25;34.63;;;19.85;;
78308;SDS011;67566;42.022;21.356;2023-03-23T00:15:52;31.15;;;19.95;;
78308;SDS011;67566;42.022;21.356;2023-03-23T00:18:18;35.97;;;20.55;;
78308;SDS011;67566;42.022;21.356;2023-03-23T00:20:51;30.00;;;20.08;;
78308;SDS011;67566;42.022;21.356;2023-03-23T00:25:45;38.15;;;20.77;;
78308;SDS011;67566;42.022;21.356;2023-03-23T00:28:12;34.25;;;19.75;;
78308;SDS011;67566;42.022;21.356;2023-03-23T00:30:38;32.80;;;19.85;;
78308;SDS011;67566;42.022;21.356;2023-03-23T00:33:04;33.92;;;20.52;;
78308;SDS011;67566;42.022;21.356;2023-03-23T00:35:30;34.15;;;21.15;;
78308;SDS011;67566;42.022;21.356;2023-03-23T00:37:56;36.05;;;20.88;;
78308;SDS011;67566;42.022;21.356;2023-03-23T00:40:23;34.80;;;20.58;;
78308;SDS011;67566;42.022;21.356;2023-03-23T00:42:49;27.80;;;17.02;;
78308;SDS011;67566;42.022;21.356;2023-03-23T00:45:14;31.92;;;18.75;;
78308;SDS011;67566;42.022;21.356;2023-03-23T00:47:41;30.23;;;18.83;;
78308;SDS011;67566;42.022;21.356;2023-03-23T00:50:11;28.95;;;20.33;;
78308;SDS011;67566;42.022;21.356;2023-03-23T00:52:38;29.65;;;17.92;;
78308;SDS011;67566;42.022;21.356;2023-03-23T00:55:05;25.55;;;16.50;;
78308;SDS011;67566;42.022;21.356;2023-03-23T00:57:31;24.73;;;15.00;;
78308;SDS011;67566;42.022;21.356;2023-03-23T00:59:57;28.63;;;19.67;;
78308;SDS011;67566;42.022;21.356;2023-03-23T01:02:22;24.05;;;15.85;;
78308;SDS011;67566;42.022;21.356;2023-03-23T01:04:49;28.08;;;17.50;;
78308;SDS011;67566;42.022;21.356;2023-03-23T01:07:17;26.13;;;16.35;;
78308;SDS011;67566;42.022;21.356;2023-03-23T01:09:45;23.60;;;15.50;;
78308;SDS011;67566;42.022;21.356;2023-03-23T01:12:13;25.85;;;18.08;;
78308;SDS011;67566;42.022;21.356;2023-03-23T01:14:40;30.13;;;18.25;;
78308;SDS011;67566;42.022;21.356;2023-03-23T01:17:06;37.67;;;22.27;;
78308;SDS011;67566;42.022;21.356;2023-03-23T01:19:32;49.42;;;33.00;;
78308;SDS011;67566;42.022;21.356;2023-03-23T01:21:57;36.40;;;22.63;;
78308;SDS011;67566;42.022;21.356;2023-03-23T01:24:23;30.35;;;20.55;;
78308;SDS011;67566;42.022;21.356;2023-03-23T01:26:48;29.27;;;20.40;;
78308;SDS011;67566;42.022;21.356;2023-03-23T01:29:14;39.83;;;23.35;;
78308;SDS011;67566;42.022;21.356;2023-03-23T01:31:40;30.17;;;21.40;;
78308;SDS011;67566;42.022;21.356;2023-03-23T01:34:07;37.85;;;22.77;;
78308;SDS011;67566;42.022;21.356;2023-03-23T01:36:33;23.92;;;16.58;;
78308;SDS011;67566;42.022;21.356;2023-03-23T01:38:59;34.92;;;19.80;;
78308;SDS011;67566;42.022;21.356;2023-03-23T01:41:27;33.80;;;19.50;;
78308;SDS011;67566;42.022;21.356;2023-03-23T01:43:57;29.42;;;17.83;;
78308;SDS011;67566;42.022;21.356;2023-03-23T01:46:41;33.08;;;16.65;;
78308;SDS011;67566;42.022;21.356;2023-03-23T01:49:09;26.17;;;16.40;;
78308;SDS011;67566;42.022;21.356;2023-03-23T01:51:48;26.40;;;15.05;;
78308;SDS011;67566;42.022;21.356;2023-03-23T01:54:18;25.20;;;15.57;;
78308;SDS011;67566;42.022;21.356;2023-03-23T01:57:05;31.85;;;19.15;;
78308;SDS011;67566;42.022;21.356;2023-03-23T01:59:34;26.55;;;16.05;;
78308;SDS011;67566;42.022;21.356;2023-03-23T02:02:01;21.38;;;13.75;;
78308;SDS011;67566;42.022;21.356;2023-03-23T02:04:27;27.20;;;16.55;;
78308;SDS011;67566;42.022;21.356;2023-03-23T02:06:55;35.45;;;20.23;;
78308;SDS011;67566;42.022;21.356;2023-03-23T02:09:24;25.23;;;16.13;;
78308;SDS011;67566;42.022;21.356;2023-03-23T02:11:50;30.05;;;16.70;;
78308;SDS011;67566;42.022;21.356;2023-03-23T02:14:17;23.60;;;15.15;;
78308;SDS011;67566;42.022;21.356;2023-03-23T02:35:47;29.80;;;18.63;;
78308;SDS011;67566;42.022;21.356;2023-03-23T02:38:18;31.33;;;18.35;;
78308;SDS011;67566;42.022;21.356;2023-03-23T02:40:49;22.25;;;13.82;;
78308;SDS011;67566;42.022;21.356;2023-03-23T02:43:20;25.02;;;14.20;;
78308;SDS011;67566;42.022;21.356;2023-03-23T02:45:48;19.25;;;12.10;;
78308;SDS011;67566;42.022;21.356;2023-03-23T02:48:15;19.05;;;11.05;;
78308;SDS011;67566;42.022;21.356;2023-03-23T02:50:46;17.83;;;10.40;;
78308;SDS011;67566;42.022;21.356;2023-03-23T02:53:16;17.40;;;10.10;;
78308;SDS011;67566;42.022;21.356;2023-03-23T02:55:46;24.63;;;15.88;;
78308;SDS011;67566;42.022;21.356;2023-03-23T02:58:13;41.40;;;20.25;;
78308;SDS011;67566;42.022;21.356;2023-03-23T03:00:39;38.38;;;19.02;;
78308;SDS011;67566;42.022;21.356;2023-03-23T03:03:07;36.92;;;19.58;;
78308;SDS011;67566;42.022;21.356;2023-03-23T03:08:48;37.58;;;18.10;;
78308;SDS011;67566;42.022;21.356;2023-03-23T03:11:18;29.00;;;16.85;;
78308;SDS011;67566;42.022;21.356;2023-03-23T03:14:00;20.60;;;14.65;;
78308;SDS011;67566;42.022;21.356;2023-03-23T03:19:07;16.27;;;12.23;;
78308;SDS011;67566;42.022;21.356;2023-03-23T03:21:37;15.15;;;11.25;;
78308;SDS011;67566;42.022;21.356;2023-03-23T03:24:07;14.40;;;10.38;;
78308;SDS011;67566;42.022;21.356;2023-03-23T03:26:36;21.27;;;13.40;;
78308;SDS011;67566;42.022;21.356;2023-03-23T03:29:04;18.20;;;12.48;;
78308;SDS011;67566;42.022;21.356;2023-03-23T03:31:36;20.55;;;13.32;;
78308;SDS011;67566;42.022;21.356;2023-03-23T03:34:04;20.23;;;14.68;;
78308;SDS011;67566;42.022;21.356;2023-03-23T03:36:32;22.00;;;14.18;;
78308;SDS011;67566;42.022;21.356;2023-03-23T03:39:03;19.90;;;13.20;;
78308;SDS011;67566;42.022;21.356;2023-03-23T03:41:32;20.48;;;13.20;;
78308;SDS011;67566;42.022;21.356;2023-03-23T03:43:59;20.58;;;13.35;;
78308;SDS011;67566;42.022;21.356;2023-03-23T03:46:25;22.98;;;14.68;;
78308;SDS011;67566;42.022;21.356;2023-03-23T03:48:53;22.58;;;14.77;;
78308;SDS011;67566;42.022;21.356;2023-03-23T03:51:18;22.90;;;14.48;;
78308;SDS011;67566;42.022;21.356;2023-03-23T03:53:43;21.25;;;13.80;;
78308;SDS011;67566;42.022;21.356;2023-03-23T03:56:09;31.67;;;17.13;;
78308;SDS011;67566;42.022;21.356;2023-03-23T03:58:35;26.15;;;15.50;;
78308;SDS011;67566;42.022;21.356;2023-03-23T04:01:01;28.30;;;16.30;;
78308;SDS011;67566;42.022;21.356;2023-03-23T04:03:28;24.65;;;14.90;;
78308;SDS011;67566;42.022;21.356;2023-03-23T04:05:54;27.40;;;17.15;;
78308;SDS011;67566;42.022;21.356;2023-03-23T04:08:21;20.15;;;13.80;;
78308;SDS011;67566;42.022;21.356;2023-03-23T04:10:48;20.75;;;13.00;;
78308;SDS011;67566;42.022;21.356;2023-03-23T04:13:14;20.88;;;13.60;;
78308;SDS011;67566;42.022;21.356;2023-03-23T04:15:40;21.02;;;13.70;;
78308;SDS011;67566;42.022;21.356;2023-03-23T04:18:05;21.75;;;13.77;;
78308;SDS011;67566;42.022;21.356;2023-03-23T04:20:31;22.20;;;13.68;;
78308;SDS011;67566;42.022;21.356;2023-03-23T04:22:57;19.15;;;13.10;;
78308;SDS011;67566;42.022;21.356;2023-03-23T04:25:22;24.23;;;14.65;;
78308;SDS011;67566;42.022;21.356;2023-03-23T04:27:49;28.95;;;17.42;;
78308;SDS011;67566;42.022;21.356;2023-03-23T04:30:19;21.70;;;14.00;;
78308;SDS011;67566;42.022;21.356;2023-03-23T04:32:46;23.13;;;14.50;;
78308;SDS011;67566;42.022;21.356;2023-03-23T04:35:16;30.48;;;19.40;;
78308;SDS011;67566;42.022;21.356;2023-03-23T04:37:42;31.05;;;17.77;;
78308;SDS011;67566;42.022;21.356;2023-03-23T04:40:08;45.03;;;26.05;;
78308;SDS011;67566;42.022;21.356;2023-03-23T04:42:39;34.20;;;19.42;;
78308;SDS011;67566;42.022;21.356;2023-03-23T04:45:10;32.60;;;18.40;;
78308;SDS011;67566;42.022;21.356;2023-03-23T04:47:36;25.30;;;17.58;;
78308;SDS011;67566;42.022;21.356;2023-03-23T04:50:08;22.15;;;13.60;;
78308;SDS011;67566;42.022;21.356;2023-03-23T04:52:37;20.80;;;14.30;;
78308;SDS011;67566;42.022;21.356;2023-03-23T04:55:05;24.48;;;15.68;;
78308;SDS011;67566;42.022;21.356;2023-03-23T04:57:32;21.02;;;14.98;;
78308;SDS011;67566;42.022;21.356;2023-03-23T04:59:58;36.42;;;22.38;;
78308;SDS011;67566;42.022;21.356;2023-03-23T05:02:24;39.47;;;24.25;;
78308;SDS011;67566;42.022;21.356;2023-03-23T05:04:50;40.42;;;23.08;;
78308;SDS011;67566;42.022;21.356;2023-03-23T05:07:16;24.00;;;18.02;;
78308;SDS011;67566;42.022;21.356;2023-03-23T05:09:41;26.67;;;16.95;;
78308;SDS011;67566;42.022;21.356;2023-03-23T05:12:08;24.58;;;18.60;;
78308;SDS011;67566;42.022;21.356;2023-03-23T05:14:35;22.42;;;16.42;;
78308;SDS011;67566;42.022;21.356;2023-03-23T05:17:01;27.38;;;17.67;;
78308;SDS011;67566;42.022;21.356;2023-03-23T05:19:26;24.98;;;18.65;;
78308;SDS011;67566;42.022;21.356;2023-03-23T05:21:53;26.20;;;18.92;;
78308;SDS011;67566;42.022;21.356;2023-03-23T05:24:19;24.40;;;18.27;;
78308;SDS011;67566;42.022;21.356;2023-03-23T05:26:45;32.78;;;19.33;;
78308;SDS011;67566;42.022;21.356;2023-03-23T05:29:13;115.97;;;82.45;;
78308;SDS011;67566;42.022;21.356;2023-03-23T05:31:39;48.45;;;36.05;;
78308;SDS011;67566;42.022;21.356;2023-03-23T05:34:05;29.67;;;22.77;;
78308;SDS011;67566;42.022;21.356;2023-03-23T05:36:30;24.65;;;18.70;;
78308;SDS011;67566;42.022;21.356;2023-03-23T05:38:56;23.02;;;17.50;;
78308;SDS011;67566;42.022;21.356;2023-03-23T05:41:25;20.80;;;15.60;;
78308;SDS011;67566;42.022;21.356;2023-03-23T05:43:51;23.08;;;15.45;;
78308;SDS011;67566;42.022;21.356;2023-03-23T05:46:16;28.70;;;19.55;;
78308;SDS011;67566;42.022;21.356;2023-03-23T05:48:43;25.45;;;18.90;;
78308;SDS011;67566;42.022;21.356;2023-03-23T05:51:08;24.30;;;18.27;;
78308;SDS011;67566;42.022;21.356;2023-03-23T05:53:35;28.35;;;19.88;;
78308;SDS011;67566;42.022;21.356;2023-03-23T05:56:00;25.45;;;18.17;;
78308;SDS011;67566;42.022;21.356;2023-03-23T05:58:26;27.73;;;18.90;;
78308;SDS011;67566;42.022;21.356;2023-03-23T06:00:52;19.58;;;15.40;;
78308;SDS011;67566;42.022;21.356;2023-03-23T06:03:18;16.05;;;14.30;;
78308;SDS011;67566;42.022;21.356;2023-03-23T06:05:44;17.83;;;14.25;;
78308;SDS011;67566;42.022;21.356;2023-03-23T06:08:10;15.88;;;12.35;;
78308;SDS011;67566;42.022;21.356;2023-03-23T06:10:36;13.88;;;12.32;;
78308;SDS011;67566;42.022;21.356;2023-03-23T06:13:02;17.80;;;13.02;;
78308;SDS011;67566;42.022;21.356;2023-03-23T06:15:29;15.55;;;12.88;;
78308;SDS011;67566;42.022;21.356;2023-03-23T06:17:59;19.92;;;15.05;;
78308;SDS011;67566;42.022;21.356;2023-03-23T06:22:51;16.63;;;14.17;;
78308;SDS011;67566;42.022;21.356;2023-03-23T06:25:17;18.90;;;14.65;;
78308;SDS011;67566;42.022;21.356;2023-03-23T06:27:43;16.20;;;13.52;;
78308;SDS011;67566;42.022;21.356;2023-03-23T06:30:10;16.17;;;13.68;;
78308;SDS011;67566;42.022;21.356;2023-03-23T06:32:36;14.52;;;13.00;;
78308;SDS011;67566;42.022;21.356;2023-03-23T06:35:03;16.65;;;14.02;;
78308;SDS011;67566;42.022;21.356;2023-03-23T06:37:29;28.55;;;24.52;;
78308;SDS011;67566;42.022;21.356;2023-03-23T06:39:55;14.73;;;13.20;;
78308;SDS011;67566;42.022;21.356;2023-03-23T06:42:22;15.27;;;11.82;;
78308;SDS011;67566;42.022;21.356;2023-03-23T06:44:50;14.55;;;13.02;;
78308;SDS011;67566;42.022;21.356;2023-03-23T06:47:16;12.68;;;11.38;;
78308;SDS011;67566;42.022;21.356;2023-03-23T06:49:42;18.77;;;14.20;;
78308;SDS011;67566;42.022;21.356;2023-03-23T06:52:07;15.10;;;13.52;;
78308;SDS011;67566;42.022;21.356;2023-03-23T06:54:33;14.80;;;13.30;;
78308;SDS011;67566;42.022;21.356;2023-03-23T06:56:58;15.68;;;14.05;;
78308;SDS011;67566;42.022;21.356;2023-03-23T06:59:24;14.82;;;13.43;;
78308;SDS011;67566;42.022;21.356;2023-03-23T07:01:49;14.43;;;12.65;;
78308;SDS011;67566;42.022;21.356;2023-03-23T07:04:15;16.83;;;13.07;;
78308;SDS011;67566;42.022;21.356;2023-03-23T07:06:41;16.30;;;14.65;;
78308;SDS011;67566;42.022;21.356;2023-03-23T07:09:07;11.32;;;10.20;;
78308;SDS011;67566;42.022;21.356;2023-03-23T07:11:33;13.25;;;11.75;;
78308;SDS011;67566;42.022;21.356;2023-03-23T07:13:58;15.00;;;13.43;;
78308;SDS011;67566;42.022;21.356;2023-03-23T07:16:23;10.90;;;9.80;;
78308;SDS011;67566;42.022;21.356;2023-03-23T07:18:49;13.85;;;12.45;;
78308;SDS011;67566;42.022;21.356;2023-03-23T07:21:14;12.27;;;9.43;;
78308;SDS011;67566;42.022;21.356;2023-03-23T07:23:40;9.35;;;8.45;;
78308;SDS011;67566;42.022;21.356;2023-03-23T07:26:06;9.18;;;8.07;;
78308;SDS011;67566;42.022;21.356;2023-03-23T07:28:32;10.25;;;8.73;;
78308;SDS011;67566;42.022;21.356;2023-03-23T07:30:58;8.55;;;7.55;;
78308;SDS011;67566;42.022;21.356;2023-03-23T07:33:24;10.07;;;7.97;;
78308;SDS011;67566;42.022;21.356;2023-03-23T07:35:49;9.93;;;7.63;;
78308;SDS011;67566;42.022;21.356;2023-03-23T07:38:15;10.98;;;7.32;;
78308;SDS011;67566;42.022;21.356;2023-03-23T07:40:40;8.30;;;7.50;;
78308;SDS011;67566;42.022;21.356;2023-03-23T07:43:06;8.35;;;7.55;;
78308;SDS011;67566;42.022;21.356;2023-03-23T07:45:32;9.60;;;8.02;;
78308;SDS011;67566;42.022;21.356;2023-03-23T07:47:58;7.80;;;7.00;;
78308;SDS011;67566;42.022;21.356;2023-03-23T07:50:24;9.13;;;7.60;;
78308;SDS011;67566;42.022;21.356;2023-03-23T07:52:53;8.98;;;6.47;;
78308;SDS011;67566;42.022;21.356;2023-03-23T07:55:20;11.23;;;6.70;;
78308;SDS011;67566;42.022;21.356;2023-03-23T07:57:46;12.63;;;7.50;;
78308;SDS011;67566;42.022;21.356;2023-03-23T08:00:17;9.43;;;8.00;;
78308;SDS011;67566;42.022;21.356;2023-03-23T08:05:15;11.77;;;9.13;;
78308;SDS011;67566;42.022;21.356;2023-03-23T08:07:42;9.45;;;7.60;;
78308;SDS011;67566;42.022;21.356;2023-03-23T08:10:10;9.98;;;7.32;;
78308;SDS011;67566;42.022;21.356;2023-03-23T08:12:39;7.28;;;6.57;;
78308;SDS011;67566;42.022;21.356;2023-03-23T08:15:07;7.43;;;6.50;;
78308;SDS011;67566;42.022;21.356;2023-03-23T08:17:34;8.77;;;7.88;;
78308;SDS011;67566;42.022;21.356;2023-03-23T08:19:59;10.57;;;8.40;;
78308;SDS011;67566;42.022;21.356;2023-03-23T08:22:26;8.52;;;7.63;;
78308;SDS011;67566;42.022;21.356;2023-03-23T08:24:54;7.68;;;6.47;;
78308;SDS011;67566;42.022;21.356;2023-03-23T08:27:19;9.00;;;7.38;;
78308;SDS011;67566;42.022;21.356;2023-03-23T08:29:45;10.18;;;9.25;;
78308;SDS011;67566;42.022;21.356;2023-03-23T08:32:11;10.15;;;9.15;;
78308;SDS011;67566;42.022;21.356;2023-03-23T08:34:37;10.60;;;8.68;;
78308;SDS011;67566;42.022;21.356;2023-03-23T08:37:02;9.20;;;8.27;;
78308;SDS011;67566;42.022;21.356;2023-03-23T08:39:28;8.00;;;7.22;;
78308;SDS011;67566;42.022;21.356;2023-03-23T08:41:55;7.72;;;6.93;;
78308;SDS011;67566;42.022;21.356;2023-03-23T08:44:21;7.95;;;6.68;;
78308;SDS011;67566;42.022;21.356;2023-03-23T08:46:47;8.30;;;7.07;;
78308;SDS011;67566;42.022;21.356;2023-03-23T08:49:12;9.55;;;7.43;;
78308;SDS011;67566;42.022;21.356;2023-03-23T08:51:38;9.23;;;8.20;;
78308;SDS011;67566;42.022;21.356;2023-03-23T08:54:05;9.85;;;8.85;;
78308;SDS011;67566;42.022;21.356;2023-03-23T08:56:31;16.05;;;11.73;;
78308;SDS011;67566;42.022;21.356;2023-03-23T08:58:56;13.77;;;12.18;;
78308;SDS011;67566;42.022;21.356;2023-03-23T09:01:22;12.70;;;11.40;;
78308;SDS011;67566;42.022;21.356;2023-03-23T09:03:48;14.05;;;12.65;;
78308;SDS011;67566;42.022;21.356;2023-03-23T09:06:13;17.70;;;15.20;;
78308;SDS011;67566;42.022;21.356;2023-03-23T09:08:39;15.00;;;13.43;;
78308;SDS011;67566;42.022;21.356;2023-03-23T09:11:06;20.00;;;16.65;;
78308;SDS011;67566;42.022;21.356;2023-03-23T09:15:59;16.70;;;14.95;;
78308;SDS011;67566;42.022;21.356;2023-03-23T09:18:25;20.13;;;16.30;;
78308;SDS011;67566;42.022;21.356;2023-03-23T09:20:51;19.90;;;15.85;;
78308;SDS011;67566;42.022;21.356;2023-03-23T09:23:18;18.50;;;16.58;;
78308;SDS011;67566;42.022;21.356;2023-03-23T09:25:43;24.15;;;15.68;;
78308;SDS011;67566;42.022;21.356;2023-03-23T09:28:09;16.63;;;14.70;;
78308;SDS011;67566;42.022;21.356;2023-03-23T09:30:36;18.35;;;14.40;;
78308;SDS011;67566;42.022;21.356;2023-03-23T09:33:03;14.10;;;11.88;;
78308;SDS011;67566;42.022;21.356;2023-03-23T09:35:30;14.48;;;12.90;;
78308;SDS011;67566;42.022;21.356;2023-03-23T09:37:57;15.40;;;13.77;;
78308;SDS011;67566;42.022;21.356;2023-03-23T09:40:41;14.25;;;12.75;;
78308;SDS011;67566;42.022;21.356;2023-03-23T09:43:28;12.88;;;11.57;;
78308;SDS011;67566;42.022;21.356;2023-03-23T09:46:22;12.10;;;10.90;;
78308;SDS011;67566;42.022;21.356;2023-03-23T09:51:32;11.50;;;9.85;;
78308;SDS011;67566;42.022;21.356;2023-03-23T09:54:23;15.32;;;12.65;;
78308;SDS011;67566;42.022;21.356;2023-03-23T09:56:53;13.27;;;10.98;;
78308;SDS011;67566;42.022;21.356;2023-03-23T10:02:17;12.00;;;10.13;;
78308;SDS011;67566;42.022;21.356;2023-03-23T10:04:47;12.82;;;9.32;;
78308;SDS011;67566;42.022;21.356;2023-03-23T10:07:19;10.93;;;9.55;;
78308;SDS011;67566;42.022;21.356;2023-03-23T10:09:46;10.35;;;9.25;;
78308;SDS011;67566;42.022;21.356;2023-03-23T10:12:25;12.18;;;9.10;;
78308;SDS011;67566;42.022;21.356;2023-03-23T10:20:00;11.48;;;9.60;;
78308;SDS011;67566;42.022;21.356;2023-03-23T10:22:47;10.57;;;8.70;;
78308;SDS011;67566;42.022;21.356;2023-03-23T10:25:34;13.32;;;7.90;;
78308;SDS011;67566;42.022;21.356;2023-03-23T10:28:08;9.63;;;7.88;;
78308;SDS011;67566;42.022;21.356;2023-03-23T10:30:41;12.18;;;9.18;;
78308;SDS011;67566;42.022;21.356;2023-03-23T10:35:36;8.68;;;7.40;;
78308;SDS011;67566;42.022;21.356;2023-03-23T10:38:18;9.60;;;8.27;;
78308;SDS011;67566;42.022;21.356;2023-03-23T10:40:56;8.55;;;7.32;;
78308;SDS011;67566;42.022;21.356;2023-03-23T10:43:25;9.85;;;8.43;;
78308;SDS011;67566;42.022;21.356;2023-03-23T10:45:56;8.98;;;7.80;;
78308;SDS011;67566;42.022;21.356;2023-03-23T10:48:35;8.65;;;6.15;;
78308;SDS011;67566;42.022;21.356;2023-03-23T10:51:17;8.50;;;6.15;;
78308;SDS011;67566;42.022;21.356;2023-03-23T10:53:56;9.65;;;8.60;;
78308;SDS011;67566;42.022;21.356;2023-03-23T10:56:27;8.48;;;7.30;;
78308;SDS011;67566;42.022;21.356;2023-03-23T11:02:14;5.63;;;4.38;;
78308;SDS011;67566;42.022;21.356;2023-03-23T11:05:03;5.93;;;4.78;;
78308;SDS011;67566;42.022;21.356;2023-03-23T11:07:50;8.98;;;6.05;;
78308;SDS011;67566;42.022;21.356;2023-03-23T11:10:37;9.15;;;6.60;;
78308;SDS011;67566;42.022;21.356;2023-03-23T11:13:09;8.45;;;6.63;;
78308;SDS011;67566;42.022;21.356;2023-03-23T11:15:39;7.40;;;5.50;;
78308;SDS011;67566;42.022;21.356;2023-03-23T11:18:09;8.43;;;5.35;;
78308;SDS011;67566;42.022;21.356;2023-03-23T11:20:37;6.53;;;5.68;;
78308;SDS011;67566;42.022;21.356;2023-03-23T11:29:09;6.80;;;4.82;;
78308;SDS011;67566;42.022;21.356;2023-03-23T11:31:35;6.85;;;5.20;;
78308;SDS011;67566;42.022;21.356;2023-03-23T11:34:09;7.78;;;5.45;;
78308;SDS011;67566;42.022;21.356;2023-03-23T11:36:47;9.32;;;5.20;;
78308;SDS011;67566;42.022;21.356;2023-03-23T11:39:25;5.47;;;4.85;;
78308;SDS011;67566;42.022;21.356;2023-03-23T11:44:17;6.53;;;4.57;;
78308;SDS011;67566;42.022;21.356;2023-03-23T11:52:05;9.57;;;4.93;;
78308;SDS011;67566;42.022;21.356;2023-03-23T11:55:01;6.47;;;5.35;;
78308;SDS011;67566;42.022;21.356;2023-03-23T11:57:34;6.05;;;3.90;;
78308;SDS011;67566;42.022;21.356;2023-03-23T12:00:00;6.07;;;4.90;;
78308;SDS011;67566;42.022;21.356;2023-03-23T12:07:47;7.65;;;4.88;;
78308;SDS011;67566;42.022;21.356;2023-03-23T12:10:19;5.93;;;4.15;;
78308;SDS011;67566;42.022;21.356;2023-03-23T12:12:54;5.93;;;4.32;;
78308;SDS011;67566;42.022;21.356;2023-03-23T12:15:36;6.25;;;4.68;;
78308;SDS011;67566;42.022;21.356;2023-03-23T12:21:14;6.10;;;4.90;;
78308;SDS011;67566;42.022;21.356;2023-03-23T12:32:00;6.18;;;4.30;;
78308;SDS011;67566;42.022;21.356;2023-03-23T12:35:02;6.82;;;4.70;;
78308;SDS011;67566;42.022;21.356;2023-03-23T12:59:06;5.60;;;4.30;;
78308;SDS011;67566;42.022;21.356;2023-03-23T13:01:38;4.60;;;3.88;;
78308;SDS011;67566;42.022;21.356;2023-03-23T13:04:10;6.30;;;4.80;;
78308;SDS011;67566;42.022;21.356;2023-03-23T13:06:41;8.38;;;5.35;;
78308;SDS011;67566;42.022;21.356;2023-03-23T13:11:54;5.63;;;4.45;;
78308;SDS011;67566;42.022;21.356;2023-03-23T13:22:42;6.40;;;4.95;;
78308;SDS011;67566;42.022;21.356;2023-03-23T13:25:15;5.93;;;4.50;;
78308;SDS011;67566;42.022;21.356;2023-03-23T13:27:44;6.50;;;5.28;;
78308;SDS011;67566;42.022;21.356;2023-03-23T13:30:25;6.90;;;4.70;;
78308;SDS011;67566;42.022;21.356;2023-03-23T13:33:00;7.82;;;6.25;;
78308;SDS011;67566;42.022;21.356;2023-03-23T13:35:32;7.63;;;5.65;;
78308;SDS011;67566;42.022;21.356;2023-03-23T13:38:01;8.63;;;5.53;;
78308;SDS011;67566;42.022;21.356;2023-03-23T13:40:30;6.45;;;4.90;;
78308;SDS011;67566;42.022;21.356;2023-03-23T13:42:58;6.75;;;4.93;;
78308;SDS011;67566;42.022;21.356;2023-03-23T13:53:48;6.93;;;4.40;;
78308;SDS011;67566;42.022;21.356;2023-03-23T13:56:18;6.75;;;4.82;;
78308;SDS011;67566;42.022;21.356;2023-03-23T14:01:55;6.53;;;5.43;;
78308;SDS011;67566;42.022;21.356;2023-03-23T14:04:23;9.48;;;5.30;;
78308;SDS011;67566;42.022;21.356;2023-03-23T14:07:08;6.28;;;5.13;;
78308;SDS011;67566;42.022;21.356;2023-03-23T14:09:39;7.10;;;4.65;;
78308;SDS011;67566;42.022;21.356;2023-03-23T14:15:00;7.65;;;4.70;;
78308;SDS011;67566;42.022;21.356;2023-03-23T14:17:30;5.03;;;4.40;;
78308;SDS011;67566;42.022;21.356;2023-03-23T14:19:58;5.60;;;4.65;;
78308;SDS011;67566;42.022;21.356;2023-03-23T14:22:26;6.40;;;4.75;;
78308;SDS011;67566;42.022;21.356;2023-03-23T14:25:15;5.97;;;4.72;;
78308;SDS011;67566;42.022;21.356;2023-03-23T14:27:43;9.15;;;5.72;;
78308;SDS011;67566;42.022;21.356;2023-03-23T14:30:14;9.23;;;5.05;;
78308;SDS011;67566;42.022;21.356;2023-03-23T14:32:41;26.02;;;11.27;;
78308;SDS011;67566;42.022;21.356;2023-03-23T14:35:29;8.63;;;5.53;;
78308;SDS011;67566;42.022;21.356;2023-03-23T14:37:55;11.35;;;6.28;;
78308;SDS011;67566;42.022;21.356;2023-03-23T14:40:22;10.77;;;7.53;;
78308;SDS011;67566;42.022;21.356;2023-03-23T14:42:50;9.32;;;5.03;;
78308;SDS011;67566;42.022;21.356;2023-03-23T14:45:19;9.55;;;5.53;;
78308;SDS011;67566;42.022;21.356;2023-03-23T14:47:47;7.65;;;5.38;;
78308;SDS011;67566;42.022;21.356;2023-03-23T14:53:21;6.18;;;4.50;;
78308;SDS011;67566;42.022;21.356;2023-03-23T14:55:51;7.53;;;4.53;;
78308;SDS011;67566;42.022;21.356;2023-03-23T14:58:21;9.20;;;5.03;;
78308;SDS011;67566;42.022;21.356;2023-03-23T15:00:53;9.93;;;6.28;;
78308;SDS011;67566;42.022;21.356;2023-03-23T15:03:19;6.20;;;4.50;;
78308;SDS011;67566;42.022;21.356;2023-03-23T15:05:48;7.18;;;4.80;;
78308;SDS011;67566;42.022;21.356;2023-03-23T15:08:19;7.72;;;5.88;;
78308;SDS011;67566;42.022;21.356;2023-03-23T15:13:34;6.55;;;4.38;;
78308;SDS011;67566;42.022;21.356;2023-03-23T15:16:02;7.22;;;5.00;;
78308;SDS011;67566;42.022;21.356;2023-03-23T15:18:33;6.20;;;5.53;;
78308;SDS011;67566;42.022;21.356;2023-03-23T15:21:08;8.57;;;5.20;;
78308;SDS011;67566;42.022;21.356;2023-03-23T15:23:45;6.90;;;4.70;;
78308;SDS011;67566;42.022;21.356;2023-03-23T15:26:44;13.52;;;5.50;;
78308;SDS011;67566;42.022;21.356;2023-03-23T15:31:33;8.07;;;4.80;;
78308;SDS011;67566;42.022;21.356;2023-03-23T15:34:03;6.00;;;5.18;;
78308;SDS011;67566;42.022;21.356;2023-03-23T15:36:33;11.85;;;6.68;;
78308;SDS011;67566;42.022;21.356;2023-03-23T15:39:00;16.23;;;7.85;;
78308;SDS011;67566;42.022;21.356;2023-03-23T15:41:28;9.07;;;5.00;;
78308;SDS011;67566;42.022;21.356;2023-03-23T15:43:58;13.02;;;6.32;;
78308;SDS011;67566;42.022;21.356;2023-03-23T15:46:35;7.43;;;5.55;;
78308;SDS011;67566;42.022;21.356;2023-03-23T15:51:27;11.52;;;8.85;;
78308;SDS011;67566;42.022;21.356;2023-03-23T15:53:55;7.68;;;5.40;;
78308;SDS011;67566;42.022;21.356;2023-03-23T15:56:22;10.48;;;6.30;;
78308;SDS011;67566;42.022;21.356;2023-03-23T15:58:49;7.10;;;5.78;;
78308;SDS011;67566;42.022;21.356;2023-03-23T16:01:17;10.07;;;7.00;;
78308;SDS011;67566;42.022;21.356;2023-03-23T16:03:49;10.60;;;6.53;;
78308;SDS011;67566;42.022;21.356;2023-03-23T16:06:17;12.23;;;7.45;;
78308;SDS011;67566;42.022;21.356;2023-03-23T16:08:44;9.48;;;6.47;;
78308;SDS011;67566;42.022;21.356;2023-03-23T16:11:13;10.32;;;6.95;;
78308;SDS011;67566;42.022;21.356;2023-03-23T16:13:40;11.68;;;7.30;;
78308;SDS011;67566;42.022;21.356;2023-03-23T16:16:10;9.23;;;7.32;;
78308;SDS011;67566;42.022;21.356;2023-03-23T16:18:42;10.73;;;7.45;;
78308;SDS011;67566;42.022;21.356;2023-03-23T16:21:08;10.45;;;8.13;;
78308;SDS011;67566;42.022;21.356;2023-03-23T16:23:33;9.45;;;7.47;;
78308;SDS011;67566;42.022;21.356;2023-03-23T16:25:59;10.55;;;7.78;;
78308;SDS011;67566;42.022;21.356;2023-03-23T16:28:25;15.80;;;10.20;;
78308;SDS011;67566;42.022;21.356;2023-03-23T16:30:50;13.63;;;10.82;;
78308;SDS011;67566;42.022;21.356;2023-03-23T16:33:16;14.82;;;9.38;;
78308;SDS011;67566;42.022;21.356;2023-03-23T16:35:41;16.95;;;12.48;;
78308;SDS011;67566;42.022;21.356;2023-03-23T16:38:09;20.30;;;14.48;;
78308;SDS011;67566;42.022;21.356;2023-03-23T16:40:38;15.95;;;13.02;;
78308;SDS011;67566;42.022;21.356;2023-03-23T16:43:05;32.00;;;28.80;;
78308;SDS011;67566;42.022;21.356;2023-03-23T16:45:30;24.33;;;21.73;;
78308;SDS011;67566;42.022;21.356;2023-03-23T16:47:56;27.02;;;21.13;;